Time;durP1;ratioP1;P1;durP2;ratioP2;P2;SDS_P1;SDS_P2;PMS_P1;PMS_P2;Temp;Humidity;BMP_temperature;BMP_pressure;BME280_temperature;BME280_humidity;BME280_pressure;Samples;Min_cycle;Max_cycle;Signal;HPM_P1;HPM_P2
2022/11/12 00:01:11;;;;;;;;;;;;;;;16.85;44.70;100653.06;4510840;31;32969;-87
2022/11/12 00:03:57;;;;;;;;;;;;;;;16.88;44.58;100648.75;4510647;31;35164;-86
2022/11/12 00:06:42;;;;;;;;;;;;;;;17.03;44.19;100645.41;4506828;31;34277;-89
2022/11/12 00:09:28;;;;;;;;;;;;;;;16.97;44.24;100648.84;4511996;31;34720;-87
2022/11/12 00:12:14;;;;;;;;;;;;;;;17.01;44.11;100648.03;4515428;31;33252;-94
2022/11/12 00:15:00;;;;;;;;;;;;;;;16.87;44.30;100648.75;4508474;31;34374;-87
2022/11/12 00:17:46;;;;;;;;;;;;;;;17.03;43.90;100645.41;4515433;31;35332;-88
2022/11/12 00:20:31;;;;;;;;;;;;;;;17.11;43.72;100641.13;4515393;31;34040;-91
2022/11/12 00:23:17;;;;;;;;;;;;;;;16.96;44.04;100641.84;4510889;31;34231;-89
2022/11/12 00:26:03;;;;;;;;;;;;;;;17.05;44.01;100637.53;4509936;31;35209;-93
2022/11/12 00:28:49;;;;;;;;;;;;;;;17.00;44.08;100634.88;4515335;31;34905;-94
2022/11/12 00:31:36;;;;;;;;;;;;;;;16.52;44.85;100634.34;4514443;31;34254;-93
2022/11/12 00:34:21;;;;;;;;;;;;;;;16.84;44.30;100628.62;4511213;31;33485;-93
2022/11/12 00:37:07;;;;;;;;;;;;;;;16.86;44.37;100631.25;4499028;31;35044;-94
2022/11/12 00:39:53;;;;;;;;;;;;;;;16.95;44.20;100636.59;4499381;31;34952;-95
2022/11/12 00:42:38;;;;;;;;;;;;;;;16.79;44.46;100635.56;4504044;31;35062;-94
2022/11/12 00:45:24;;;;;;;;;;;;;;;16.94;44.22;100630.47;4505914;31;32994;-86
2022/11/12 00:48:10;;;;;;;;;;;;;;;16.66;44.80;100631.00;4499238;31;33839;-94
2022/11/12 00:50:59;;;;;;;;;;;;;;;16.83;44.52;100615.53;4499369;31;34196;-92
2022/11/12 00:53:48;;;;;;;;;;;;;;;16.81;44.55;100618.09;4512129;31;34489;-89
2022/11/12 00:56:34;;;;;;;;;;;;;;;16.72;45.01;100612.75;4510624;31;32861;-86
2022/11/12 00:59:20;;;;;;;;;;;;;;;16.78;44.99;100612.81;4512504;31;35141;-91
2022/11/12 01:02:06;;;;;;;;;;;;;;;16.26;46.13;100622.69;4506521;31;34009;-92
2022/11/12 01:04:51;;;;;;;;;;;;;;;16.52;45.73;100628.25;4500047;31;35038;-88
2022/11/12 01:07:37;;;;;;;;;;;;;;;16.68;45.41;100621.44;4502357;31;33491;-87
2022/11/12 01:10:23;;;;;;;;;;;;;;;16.76;45.28;100606.72;4507444;31;34508;-89
2022/11/12 01:13:09;;;;;;;;;;;;;;;16.73;45.28;100606.63;4514105;31;35221;-93
2022/11/12 01:15:54;;;;;;;;;;;;;;;16.69;45.53;100603.09;4513302;31;34131;-90
2022/11/12 01:18:40;;;;;;;;;;;;;;;16.87;45.02;100596.34;4498614;31;34077;-90
2022/11/12 01:21:27;;;;;;;;;;;;;;;16.69;45.32;100590.00;4497490;31;34340;-92
2022/11/12 01:24:12;;;;;;;;;;;;;;;16.16;46.92;100603.34;4500612;31;35063;-87
2022/11/12 01:26:58;;;;;;;;;;;;;;;16.41;46.42;100595.81;4507314;31;34360;-91
2022/11/12 01:29:45;;;;;;;;;;;;;;;16.17;47.71;100596.37;4502242;31;32620;-89
2022/11/12 01:32:35;;;;;;;;;;;;;;;15.86;48.66;100590.72;4512577;31;34799;-88
2022/11/12 01:35:21;;;;;;;;;;;;;;;15.05;51.11;100587.69;4502401;31;35163;-91
2022/11/12 01:38:06;;;;;;;;;;;;;;;15.01;51.04;100596.34;4512410;31;34158;-92
2022/11/12 01:40:52;;;;;;;;;;;;;;;15.08;51.02;100592.97;4514096;31;34193;-87
2022/11/12 01:43:38;;;;;;;;;;;;;;;15.60;49.80;100578.97;4509908;31;34048;-87
2022/11/12 01:46:26;;;;;;;;;;;;;;;15.51;49.80;100587.56;4508949;31;34083;-88
2022/11/12 01:49:13;;;;;;;;;;;;;;;15.56;49.75;100585.91;4512968;31;33894;-93
2022/11/12 01:52:08;;;;;;;;;;;;;;;15.84;48.91;100586.34;4500610;31;32863;-92
2022/11/12 01:54:55;;;;;;;;;;;;;;;16.14;48.15;100576.31;4507077;31;34084;-87
2022/11/12 01:57:44;;;;;;;;;;;;;;;16.17;47.62;100578.06;4507369;31;35087;-89
2022/11/12 02:00:30;;;;;;;;;;;;;;;16.12;47.66;100582.34;4500353;31;35026;-92
2022/11/12 02:03:20;;;;;;;;;;;;;;;15.68;48.92;100585.22;4509884;31;34218;-88
2022/11/12 02:06:07;;;;;;;;;;;;;;;16.26;47.48;100581.69;4514056;31;34807;-89
2022/11/12 02:08:52;;;;;;;;;;;;;;;16.31;47.34;100584.34;4510107;31;34439;-86
2022/11/12 02:11:38;;;;;;;;;;;;;;;16.35;46.80;100580.91;4498272;31;34209;-88
2022/11/12 02:14:24;;;;;;;;;;;;;;;16.62;46.08;100576.84;4509262;31;33934;-95
2022/11/12 02:17:10;;;;;;;;;;;;;;;16.53;46.08;100570.66;4506675;31;33344;-86
2022/11/12 02:19:57;;;;;;;;;;;;;;;16.72;45.58;100571.72;4515421;31;34462;-94
2022/11/12 02:22:43;;;;;;;;;;;;;;;16.30;46.13;100559.03;4502357;31;34165;-88
2022/11/12 02:25:29;;;;;;;;;;;;;;;16.32;46.14;100553.81;4500174;31;33873;-87
2022/11/12 02:28:14;;;;;;;;;;;;;;;16.35;46.04;100543.38;4500979;31;34159;-88
2022/11/12 02:31:00;;;;;;;;;;;;;;;16.54;45.46;100540.97;4511445;31;35070;-94
2022/11/12 02:33:45;;;;;;;;;;;;;;;16.54;45.28;100546.22;4504217;31;34956;-91
2022/11/12 02:36:31;;;;;;;;;;;;;;;16.04;46.09;100545.63;4500426;31;33040;-92
2022/11/12 02:39:17;;;;;;;;;;;;;;;16.44;45.45;100552.22;4515663;31;34024;-91
2022/11/12 02:42:03;;;;;;;;;;;;;;;16.35;45.37;100554.72;4501282;31;34904;-88
2022/11/12 02:44:48;;;;;;;;;;;;;;;15.89;45.97;100551.53;4499994;31;34223;-87
2022/11/12 02:47:34;;;;;;;;;;;;;;;15.93;46.65;100555.09;4499536;31;33841;-91
2022/11/12 02:50:20;;;;;;;;;;;;;;;15.86;46.63;100551.50;4504428;31;33886;-88
2022/11/12 02:53:06;;;;;;;;;;;;;;;14.80;50.83;100565.47;4511630;31;34324;-92
2022/11/12 02:55:51;;;;;;;;;;;;;;;15.11;49.78;100567.75;4514386;31;34011;-88
2022/11/12 02:58:37;;;;;;;;;;;;;;;15.22;49.78;100568.81;4510887;31;34071;-88
2022/11/12 03:01:23;;;;;;;;;;;;;;;15.34;49.28;100569.00;4512876;31;34112;-90
2022/11/12 03:04:09;;;;;;;;;;;;;;;15.24;49.54;100569.72;4500373;31;35194;-92
2022/11/12 03:06:55;;;;;;;;;;;;;;;15.65;48.54;100565.16;4500116;31;34917;-88
2022/11/12 03:09:41;;;;;;;;;;;;;;;15.22;49.50;100564.47;4503809;31;34192;-87
2022/11/12 03:12:28;;;;;;;;;;;;;;;15.30;49.02;100567.19;4507778;31;34448;-90
2022/11/12 03:15:13;;;;;;;;;;;;;;;15.35;49.01;100560.31;4498727;31;34288;-88
2022/11/12 03:17:59;;;;;;;;;;;;;;;15.43;48.66;100557.84;4509148;31;34324;-88
2022/11/12 03:20:44;;;;;;;;;;;;;;;15.40;48.58;100558.66;4499819;31;34199;-88
2022/11/12 03:23:30;;;;;;;;;;;;;;;15.43;48.86;100558.72;4500935;31;33875;-91
2022/11/12 03:26:16;;;;;;;;;;;;;;;14.54;51.63;100557.16;4513815;31;33883;-88
2022/11/12 03:29:02;;;;;;;;;;;;;;;15.18;49.47;100561.78;4515870;31;34153;-93
2022/11/12 03:31:48;;;;;;;;;;;;;;;15.05;50.27;100558.97;4510115;31;34180;-87
2022/11/12 03:34:33;;;;;;;;;;;;;;;14.52;51.40;100563.22;4507797;31;34287;-89
2022/11/12 03:37:19;;;;;;;;;;;;;;;15.19;49.89;100566.13;4499620;31;35292;-89
2022/11/12 03:40:05;;;;;;;;;;;;;;;15.05;49.71;100566.81;4499633;31;33815;-91
2022/11/12 03:42:51;;;;;;;;;;;;;;;15.52;48.64;100571.91;4504587;31;33295;-93
2022/11/12 03:45:37;;;;;;;;;;;;;;;15.58;48.17;100565.91;4507209;31;34950;-93
2022/11/12 03:48:23;;;;;;;;;;;;;;;14.97;49.49;100573.63;4499700;31;34506;-90
2022/11/12 03:51:11;;;;;;;;;;;;;;;14.99;49.22;100566.69;4501599;31;34662;-89
2022/11/12 03:53:56;;;;;;;;;;;;;;;15.25;48.23;100571.47;4502829;31;33063;-89
2022/11/12 03:56:42;;;;;;;;;;;;;;;14.94;48.90;100578.78;4513421;31;33461;-92
2022/11/12 03:59:28;;;;;;;;;;;;;;;15.32;47.93;100581.19;4514579;31;34491;-86
2022/11/12 04:02:13;;;;;;;;;;;;;;;14.83;48.47;100576.00;4500173;31;34284;-92
2022/11/12 04:11:14;;;;;;;;;;;;;;;16.13;45.39;100571.03;4500486;31;35314;-89
2022/11/12 04:14:00;;;;;;;;;;;;;;;16.00;45.65;100578.72;4497689;31;34728;-87
2022/11/12 04:23:14;;;;;;;;;;;;;;;16.32;44.89;100561.66;4455955;32;34020;-89
2022/11/12 04:32:08;;;;;;;;;;;;;;;16.23;44.91;100557.22;4500032;31;33819;-90
2022/11/12 04:34:54;;;;;;;;;;;;;;;16.15;45.03;100545.78;4499091;31;33704;-88
2022/11/12 04:37:45;;;;;;;;;;;;;;;16.35;44.69;100541.63;4500451;31;33699;-88
2022/11/12 04:46:40;;;;;;;;;;;;;;;16.29;44.37;100549.44;4499092;31;34052;-90
2022/11/12 04:49:26;;;;;;;;;;;;;;;16.31;44.44;100552.94;4499036;31;34859;-88
2022/11/12 04:52:11;;;;;;;;;;;;;;;16.31;44.11;100545.09;4499263;31;33093;-93
2022/11/12 04:54:57;;;;;;;;;;;;;;;16.20;44.24;100550.19;4505166;31;34147;-93
2022/11/12 04:57:43;;;;;;;;;;;;;;;16.34;43.76;100547.75;4498742;31;35799;-92
2022/11/12 05:00:29;;;;;;;;;;;;;;;16.43;43.30;100553.06;4499218;31;34835;-91
2022/11/12 05:03:15;;;;;;;;;;;;;;;16.48;42.97;100545.28;4499501;31;32631;-87
2022/11/12 05:06:03;;;;;;;;;;;;;;;16.41;42.90;100549.56;4510047;31;34093;-88
2022/11/12 05:08:49;;;;;;;;;;;;;;;16.46;42.69;100550.50;4513786;31;35379;-89
2022/11/12 05:11:35;;;;;;;;;;;;;;;16.25;42.54;100561.63;4512137;31;33745;-89
2022/11/12 05:14:21;;;;;;;;;;;;;;;16.29;42.50;100546.81;4507954;31;32866;-88
2022/11/12 05:17:06;;;;;;;;;;;;;;;16.30;42.36;100553.81;4502594;31;34669;-87
2022/11/12 05:19:52;;;;;;;;;;;;;;;16.44;41.73;100567.94;4498993;31;34190;-93
2022/11/12 05:22:38;;;;;;;;;;;;;;;16.12;42.27;100561.44;4507062;31;34393;-89
2022/11/12 05:25:38;;;;;;;;;;;;;;;16.10;42.36;100557.91;4505022;31;32971;-86
2022/11/12 05:28:24;;;;;;;;;;;;;;;16.25;41.97;100561.63;4498628;31;34956;-87
2022/11/12 05:31:11;;;;;;;;;;;;;;;16.28;41.65;100565.97;4507736;31;35046;-90
2022/11/12 05:33:56;;;;;;;;;;;;;;;16.18;41.79;100569.37;4502852;31;35005;-89
2022/11/12 05:36:42;;;;;;;;;;;;;;;15.86;42.10;100571.53;4514519;31;33069;-89
2022/11/12 05:39:28;;;;;;;;;;;;;;;15.88;42.28;100582.94;4507926;31;34611;-87
2022/11/12 05:42:14;;;;;;;;;;;;;;;15.91;42.28;100570.78;4498946;31;34215;-91
2022/11/12 05:45:00;;;;;;;;;;;;;;;15.96;42.26;100560.38;4510885;31;34832;-91
2022/11/12 05:47:46;;;;;;;;;;;;;;;15.70;42.69;100573.06;4516258;31;33155;-90
2022/11/12 05:50:31;;;;;;;;;;;;;;;15.36;43.68;100582.09;4516581;31;33808;-90
2022/11/12 05:53:36;;;;;;;;;;;;;;;15.14;44.67;100573.91;4503620;31;34241;-87
2022/11/12 05:56:22;;;;;;;;;;;;;;;15.27;44.71;100569.78;4516175;31;34128;-93
2022/11/12 05:59:08;;;;;;;;;;;;;;;15.63;43.54;100576.41;4515054;31;32983;-89
2022/11/12 06:01:53;;;;;;;;;;;;;;;15.47;43.82;100581.41;4499894;31;34087;-92
2022/11/12 06:04:39;;;;;;;;;;;;;;;15.78;43.38;100589.75;4516202;31;34363;-88
2022/11/12 06:07:26;;;;;;;;;;;;;;;15.66;43.81;100592.19;4515969;31;34253;-88
2022/11/12 06:10:12;;;;;;;;;;;;;;;15.70;43.91;100594.88;4508444;31;33489;-89
2022/11/12 06:13:05;;;;;;;;;;;;;;;15.79;43.80;100594.13;4516384;31;34296;-87
2022/11/12 06:15:51;;;;;;;;;;;;;;;15.80;44.01;100593.28;4511265;31;33799;-87
2022/11/12 06:18:36;;;;;;;;;;;;;;;15.87;44.06;100599.44;4515994;31;35183;-87
2022/11/12 06:21:22;;;;;;;;;;;;;;;16.02;43.94;100597.03;4508407;31;33194;-88
2022/11/12 06:24:08;;;;;;;;;;;;;;;16.03;44.03;100598.81;4501133;31;34867;-90
2022/11/12 06:26:53;;;;;;;;;;;;;;;16.19;43.55;100608.62;4516009;31;33755;-94
2022/11/12 06:29:39;;;;;;;;;;;;;;;16.02;43.90;100618.88;4507067;31;33869;-88
2022/11/12 06:32:25;;;;;;;;;;;;;;;16.12;43.66;100625.09;4506071;31;34080;-87
2022/11/12 06:35:11;;;;;;;;;;;;;;;16.05;43.85;100616.28;4508546;31;35218;-87
2022/11/12 06:37:56;;;;;;;;;;;;;;;16.08;43.85;100623.31;4500899;31;35283;-87
2022/11/12 06:40:42;;;;;;;;;;;;;;;15.91;44.46;100622.16;4507889;31;33962;-89
2022/11/12 06:43:29;;;;;;;;;;;;;;;16.20;44.04;100625.19;4515234;31;33355;-87
2022/11/12 06:46:15;;;;;;;;;;;;;;;16.02;44.57;100639.81;4503763;31;35324;-86
2022/11/12 06:49:00;;;;;;;;;;;;;;;14.92;47.00;100643.16;4499949;31;34140;-88
2022/11/12 06:51:46;;;;;;;;;;;;;;;15.31;45.88;100644.75;4510329;31;33650;-87
2022/11/12 06:54:32;;;;;;;;;;;;;;;15.86;44.56;100645.66;4514461;31;32787;-90
2022/11/12 06:57:17;;;;;;;;;;;;;;;15.70;44.84;100643.66;4515096;31;34049;-90
2022/11/12 07:00:03;;;;;;;;;;;;;;;16.04;44.32;100635.47;4512722;31;34404;-89
2022/11/12 07:02:49;;;;;;;;;;;;;;;16.18;44.14;100640.87;4499711;31;34362;-89
2022/11/12 07:05:36;;;;;;;;;;;;;;;15.88;44.78;100633.50;4499693;31;33217;-90
2022/11/12 07:08:21;;;;;;;;;;;;;;;16.08;44.60;100640.75;4505937;31;35141;-90
2022/11/12 07:11:07;;;;;;;;;;;;;;;16.00;45.04;100646.72;4500039;31;34474;-91
2022/11/12 07:13:53;;;;;;;;;;;;;;;16.12;44.96;100639.91;4499808;31;34064;-89
2022/11/12 07:16:39;;;;;;;;;;;;;;;15.74;45.88;100648.09;4500029;31;33153;-91
2022/11/12 07:19:24;;;;;;;;;;;;;;;16.02;45.44;100658.13;4513811;31;34169;-88
2022/11/12 07:22:10;;;;;;;;;;;;;;;16.40;44.76;100659.47;4513626;31;34487;-87
2022/11/12 07:24:56;;;;;;;;;;;;;;;16.48;44.71;100655.25;4515910;31;34075;-87
2022/11/12 07:27:42;;;;;;;;;;;;;;;15.94;46.58;100666.69;4511331;31;33942;-87
2022/11/12 07:30:27;;;;;;;;;;;;;;;16.29;45.76;100656.75;4512289;31;33727;-87
2022/11/12 07:33:13;;;;;;;;;;;;;;;16.35;45.88;100656.81;4501802;31;34070;-91
2022/11/12 07:36:00;;;;;;;;;;;;;;;14.83;50.19;100667.37;4515575;31;32687;-88
2022/11/12 07:38:46;;;;;;;;;;;;;;;16.19;46.73;100660.09;4513663;31;33166;-87
2022/11/12 07:41:32;;;;;;;;;;;;;;;15.98;47.12;100658.91;4510833;31;34442;-86
2022/11/12 07:44:17;;;;;;;;;;;;;;;16.09;47.25;100651.22;4509730;31;34927;-88
2022/11/12 07:47:03;;;;;;;;;;;;;;;15.88;47.77;100646.56;4508114;31;33378;-87
2022/11/12 07:49:48;;;;;;;;;;;;;;;16.02;47.66;100650.28;4504395;31;33574;-89
2022/11/12 07:52:34;;;;;;;;;;;;;;;16.13;47.78;100646.91;4505035;31;34310;-87
2022/11/12 07:55:20;;;;;;;;;;;;;;;15.58;49.12;100655.66;4506157;31;34118;-86
2022/11/12 07:58:06;;;;;;;;;;;;;;;16.18;47.97;100656.59;4506353;31;34364;-85
2022/11/12 08:00:52;;;;;;;;;;;;;;;16.22;48.05;100657.50;4508771;31;34247;-87
2022/11/12 08:03:37;;;;;;;;;;;;;;;16.58;47.52;100664.94;4513875;31;34753;-88
2022/11/12 08:06:23;;;;;;;;;;;;;;;16.27;48.46;100666.28;4512468;31;33833;-86
2022/11/12 08:09:09;;;;;;;;;;;;;;;16.51;48.00;100669.22;4513879;31;33869;-88
2022/11/12 08:11:55;;;;;;;;;;;;;;;16.44;48.01;100670.03;4515316;31;33905;-87
2022/11/12 08:14:40;;;;;;;;;;;;;;;15.96;49.41;100683.28;4500663;31;34291;-89
2022/11/12 08:17:26;;;;;;;;;;;;;;;15.28;51.13;100684.75;4515412;31;34359;-88
2022/11/12 08:20:13;;;;;;;;;;;;;;;15.99;49.49;100692.06;4511688;31;34377;-88
2022/11/12 08:22:59;;;;;;;;;;;;;;;16.32;48.60;100689.91;4504640;31;33229;-87
2022/11/12 08:25:44;;;;;;;;;;;;;;;15.74;50.44;100700.38;4503287;31;34206;-87
2022/11/12 08:28:31;;;;;;;;;;;;;;;16.06;49.76;100700.88;4499343;31;34364;-88
2022/11/12 08:31:18;;;;;;;;;;;;;;;15.21;52.20;100692.47;4504112;31;34227;-87
2022/11/12 08:34:10;;;;;;;;;;;;;;;14.70;53.83;100695.81;4500237;31;34454;-87
2022/11/12 08:36:56;;;;;;;;;;;;;;;15.38;52.30;100691.03;4499208;31;34151;-87
2022/11/12 08:39:42;;;;;;;;;;;;;;;15.25;52.73;100691.66;4499272;31;35371;-88
2022/11/12 08:42:28;;;;;;;;;;;;;;;15.34;53.05;100691.81;4473884;31;865682;-86
2022/11/12 08:45:13;;;;;;;;;;;;;;;14.61;54.96;100706.94;4497964;31;33518;-91
2022/11/12 08:48:00;;;;;;;;;;;;;;;14.65;54.67;100705.28;4507181;31;34224;-86
2022/11/12 08:50:45;;;;;;;;;;;;;;;15.27;53.08;100696.06;4512675;31;34348;-86
2022/11/12 08:53:31;;;;;;;;;;;;;;;14.44;55.12;100703.09;4508712;31;33739;-85
2022/11/12 08:56:17;;;;;;;;;;;;;;;13.86;57.46;100711.34;4515075;31;33400;-86
2022/11/12 08:59:03;;;;;;;;;;;;;;;14.60;54.76;100710.41;4513407;31;33596;-86
2022/11/12 09:01:52;;;;;;;;;;;;;;;14.69;54.36;100718.41;4502056;31;35084;-89
2022/11/12 09:04:38;;;;;;;;;;;;;;;14.30;55.75;100723.62;4511697;31;35000;-93
2022/11/12 09:07:24;;;;;;;;;;;;;;;14.91;53.98;100713.66;4503610;31;33583;-91
2022/11/12 09:10:29;;;;;;;;;;;;;;;14.77;54.08;100722.09;4504402;31;34826;-89
2022/11/12 09:13:18;;;;;;;;;;;;;;;15.13;53.26;100730.62;4504525;31;34443;-90
2022/11/12 09:16:05;;;;;;;;;;;;;;;14.99;53.34;100733.84;4499947;31;34034;-89
2022/11/12 09:18:50;;;;;;;;;;;;;;;15.35;52.52;100729.31;4499451;31;33231;-90
2022/11/12 09:21:36;;;;;;;;;;;;;;;15.35;52.49;100729.31;4503986;31;35057;-90
2022/11/12 09:24:21;;;;;;;;;;;;;;;15.18;52.68;100739.41;4505215;31;35302;-90
2022/11/12 09:27:07;;;;;;;;;;;;;;;15.50;51.76;100727.84;4499013;31;33999;-89
2022/11/12 09:29:53;;;;;;;;;;;;;;;14.82;53.27;100748.28;4498862;31;33326;-90
2022/11/12 09:32:39;;;;;;;;;;;;;;;15.26;52.11;100740.44;4508362;31;34182;-91
2022/11/12 09:35:24;;;;;;;;;;;;;;;15.18;52.65;100744.66;4502175;31;34443;-90
2022/11/12 09:38:10;;;;;;;;;;;;;;;15.15;52.67;100755.91;4506243;31;34013;-88
2022/11/12 09:41:16;;;;;;;;;;;;;;;14.51;54.60;100757.19;4509285;31;34321;-88
2022/11/12 09:44:03;;;;;;;;;;;;;;;15.08;53.30;100760.16;4503214;31;34246;-88
2022/11/12 09:46:48;;;;;;;;;;;;;;;14.93;53.23;100752.00;4511547;31;34603;-87
2022/11/12 09:49:38;;;;;;;;;;;;;;;14.26;55.75;100754.00;4499203;31;34955;-88
2022/11/12 09:52:25;;;;;;;;;;;;;;;14.20;56.01;100756.44;4509075;31;33105;-89
2022/11/12 09:55:11;;;;;;;;;;;;;;;15.42;52.95;100754.66;4508696;31;35021;-88
2022/11/12 09:57:56;;;;;;;;;;;;;;;15.07;53.04;100755.75;4500488;31;34010;-90
2022/11/12 10:00:46;;;;;;;;;;;;;;;14.47;54.48;100757.91;4501069;31;35036;-89
2022/11/12 10:03:35;;;;;;;;;;;;;;;13.84;57.22;100765.16;4500579;31;33046;-89
2022/11/12 10:06:21;;;;;;;;;;;;;;;15.16;54.23;100762.03;4501187;31;33507;-89
2022/11/12 10:09:11;;;;;;;;;;;;;;;14.85;54.96;100766.66;4506785;31;34189;-88
2022/11/12 10:12:30;;;;;;;;;;;;;;;15.90;52.22;100770.38;4510958;31;33654;-89
2022/11/12 10:18:32;;;;;;;;;;;;;;;14.80;54.31;100769.13;4506179;31;33987;-90
2022/11/12 10:21:36;;;;;;;;;;;;;;;15.65;52.63;100762.97;4503371;31;35147;-90
2022/11/12 10:24:23;;;;;;;;;;;;;;;15.78;51.64;100763.22;4509753;31;35024;-88
2022/11/12 10:27:19;;;;;;;;;;;;;;;16.59;50.43;100763.56;4502917;31;33119;-90
2022/11/12 10:30:05;;;;;;;;;;;;;;;17.35;48.62;100753.22;4503815;31;35159;-89
2022/11/12 10:32:51;;;;;;;;;;;;;;;15.91;51.13;100756.47;4497698;31;33709;-88
2022/11/12 10:35:36;;;;;;;;;;;;;;;16.44;50.56;100748.56;4507072;31;34021;-91
2022/11/12 10:38:24;;;;;;;;;;;;;;;16.85;49.26;100748.25;4512194;31;33045;-89
2022/11/12 10:41:18;;;;;;;;;;;;;;;16.81;49.69;100746.44;4501879;31;34968;-89
2022/11/12 10:44:04;;;;;;;;;;;;;;;17.26;48.53;100742.59;4510950;31;34205;-89
2022/11/12 10:46:50;;;;;;;;;;;;;;;16.95;50.13;100744.00;4508896;31;34204;-89
2022/11/12 10:49:36;;;;;;;;;;;;;;;16.62;50.64;100747.03;4511406;31;34082;-89
2022/11/12 10:52:22;;;;;;;;;;;;;;;17.56;48.47;100735.91;4504480;31;33762;-92
2022/11/12 10:55:16;;;;;;;;;;;;;;;17.81;47.64;100730.06;4508934;31;33766;-89
2022/11/12 10:58:01;;;;;;;;;;;;;;;17.95;47.55;100725.78;4499789;31;34758;-90
2022/11/12 11:00:54;;;;;;;;;;;;;;;18.01;46.66;100718.84;4501760;31;32962;-86
2022/11/12 11:03:44;;;;;;;;;;;;;;;18.01;46.60;100724.09;4499714;31;34058;-89
2022/11/12 11:06:30;;;;;;;;;;;;;;;18.47;45.38;100726.13;4503251;31;35296;-93
2022/11/12 11:09:16;;;;;;;;;;;;;;;17.47;47.45;100721.87;4501420;31;33893;-91
2022/11/12 11:12:02;;;;;;;;;;;;;;;17.99;46.46;100727.59;4507971;31;33878;-87
2022/11/12 11:14:48;;;;;;;;;;;;;;;18.86;44.98;100721.97;4507633;31;33999;-88
2022/11/12 11:17:34;;;;;;;;;;;;;;;18.98;44.21;100707.09;4500310;31;34110;-88
2022/11/12 11:20:23;;;;;;;;;;;;;;;18.88;43.34;100712.34;4512554;31;33984;-88
2022/11/12 11:23:15;;;;;;;;;;;;;;;18.31;45.56;100708.53;4505725;31;33095;-88
2022/11/12 11:26:05;;;;;;;;;;;;;;;18.15;46.75;100711.94;4505246;31;34009;-93
2022/11/12 11:28:58;;;;;;;;;;;;;;;18.53;45.92;100703.41;4512767;31;34406;-87
2022/11/12 11:31:48;;;;;;;;;;;;;;;18.91;45.24;100704.47;4498907;31;34941;-88
2022/11/12 11:34:53;;;;;;;;;;;;;;;19.03;43.85;100705.37;4499448;31;32886;-86
2022/11/12 11:37:50;;;;;;;;;;;;;;;17.85;46.89;100703.00;4498692;31;34073;-87
2022/11/12 11:41:01;;;;;;;;;;;;;;;17.64;47.59;100710.63;4499052;31;34323;-93
2022/11/12 11:43:51;;;;;;;;;;;;;;;17.99;46.63;100717.09;4505293;31;34423;-87
2022/11/12 11:46:43;;;;;;;;;;;;;;;18.36;45.71;100706.81;4499870;31;34620;-86
2022/11/12 11:49:29;;;;;;;;;;;;;;;18.30;46.70;100712.03;4498389;31;34626;-86
2022/11/12 11:52:33;;;;;;;;;;;;;;;18.59;44.68;100701.66;4501440;31;34402;-86
2022/11/12 11:55:27;;;;;;;;;;;;;;;18.23;45.65;100705.00;4505793;31;34403;-85
2022/11/12 11:58:16;;;;;;;;;;;;;;;17.60;47.46;100695.75;4501116;31;32712;-88
2022/11/12 12:01:08;;;;;;;;;;;;;;;18.63;45.52;100690.31;4504253;31;33782;-90
2022/11/12 12:04:12;;;;;;;;;;;;;;;17.24;48.61;100694.56;4504855;31;32707;-87
2022/11/12 12:07:16;;;;;;;;;;;;;;;17.81;47.64;100695.09;4504902;31;34272;-90
2022/11/12 12:10:14;;;;;;;;;;;;;;;18.24;47.04;100688.37;4507168;31;32922;-90
2022/11/12 12:13:16;;;;;;;;;;;;;;;17.95;46.48;100691.66;4503256;31;33399;-90
2022/11/12 12:16:04;;;;;;;;;;;;;;;18.50;46.24;100687.63;4503150;31;35554;-90
2022/11/12 12:19:13;;;;;;;;;;;;;;;18.52;45.67;100683.25;4499386;31;34930;-89
2022/11/12 12:21:59;;;;;;;;;;;;;;;19.14;44.38;100680.87;4501187;31;32998;-88
2022/11/12 12:24:52;;;;;;;;;;;;;;;19.37;44.21;100675.66;4488567;31;33687;-85
2022/11/12 12:27:41;;;;;;;;;;;;;;;18.92;44.03;100661.53;4496086;31;34707;-86
2022/11/12 12:30:26;;;;;;;;;;;;;;;19.00;44.05;100658.94;4503450;31;33914;-88
2022/11/12 12:33:27;;;;;;;;;;;;;;;19.84;42.13;100666.91;4486921;31;32696;-85
2022/11/12 12:36:16;;;;;;;;;;;;;;;18.79;43.51;100664.13;4505175;31;34400;-85
2022/11/12 12:39:18;;;;;;;;;;;;;;;19.34;43.02;100659.88;4488778;31;33605;-87
2022/11/12 12:42:03;;;;;;;;;;;;;;;18.99;44.13;100662.44;4497748;31;33947;-90
2022/11/12 12:44:59;;;;;;;;;;;;;;;18.91;44.48;100662.44;4499920;31;34160;-88
2022/11/12 12:47:45;;;;;;;;;;;;;;;18.57;45.13;100669.28;4502332;31;34029;-86
2022/11/12 12:50:30;;;;;;;;;;;;;;;18.94;43.65;100669.41;4494447;31;34082;-89
2022/11/12 12:53:17;;;;;;;;;;;;;;;18.81;44.22;100671.16;4495304;31;33753;-90
2022/11/12 12:56:04;;;;;;;;;;;;;;;18.67;45.05;100662.31;4495128;31;33885;-89
2022/11/12 12:58:50;;;;;;;;;;;;;;;17.99;46.85;100666.31;4499845;31;33998;-87
2022/11/12 13:01:36;;;;;;;;;;;;;;;18.89;45.34;100664.16;4499094;31;33934;-89
2022/11/12 13:04:40;;;;;;;;;;;;;;;18.77;44.88;100661.50;4495909;31;34248;-89
2022/11/12 13:07:37;;;;;;;;;;;;;;;18.84;45.28;100673.78;4501058;31;33318;-89
2022/11/12 13:10:32;;;;;;;;;;;;;;;18.39;45.00;100670.06;4497003;31;35071;-85
2022/11/12 13:13:18;;;;;;;;;;;;;;;18.13;45.81;100671.69;4495281;31;34358;-84
2022/11/12 13:16:03;;;;;;;;;;;;;;;18.80;44.73;100661.53;4495572;31;33693;-93
2022/11/12 13:18:49;;;;;;;;;;;;;;;18.98;44.02;100662.41;4496640;31;34130;-85
2022/11/12 13:21:35;;;;;;;;;;;;;;;18.56;44.55;100656.12;4499146;31;33115;-87
2022/11/12 13:24:40;;;;;;;;;;;;;;;19.23;43.50;100660.72;4508568;31;33834;-86
2022/11/12 13:27:43;;;;;;;;;;;;;;;19.19;43.73;100660.72;4504811;31;34642;-84
2022/11/12 13:30:29;;;;;;;;;;;;;;;19.62;42.87;100658.16;4500751;31;33393;-86
2022/11/12 13:33:19;;;;;;;;;;;;;;;18.60;45.15;100658.78;4503718;31;34943;-86
2022/11/12 13:36:34;;;;;;;;;;;;;;;18.85;44.34;100659.78;4500009;31;34563;-85
2022/11/12 13:39:23;;;;;;;;;;;;;;;19.29;43.72;100656.38;4494537;31;32833;-86
2022/11/12 13:45:19;;;;;;;;;;;;;;;17.74;47.40;100670.50;4507760;31;34373;-87
2022/11/12 13:48:06;;;;;;;;;;;;;;;19.29;44.36;100673.91;4501661;31;34372;-87
2022/11/12 13:50:53;;;;;;;;;;;;;;;18.85;44.74;100669.41;4506555;31;34313;-87
2022/11/12 13:53:40;;;;;;;;;;;;;;;19.39;43.86;100671.25;4504478;31;33492;-84
2022/11/12 13:56:30;;;;;;;;;;;;;;;19.41;43.87;100672.16;4507225;31;34078;-83
2022/11/12 13:59:17;;;;;;;;;;;;;;;18.72;45.03;100668.50;4508351;31;33928;-85
2022/11/12 14:02:04;;;;;;;;;;;;;;;18.99;44.58;100666.81;4490144;31;35195;-87
2022/11/12 14:04:50;;;;;;;;;;;;;;;19.31;44.18;100674.75;4507992;31;32778;-85
2022/11/12 14:07:54;;;;;;;;;;;;;;;19.42;43.47;100679.16;4500751;31;34208;-85
2022/11/12 14:10:54;;;;;;;;;;;;;;;18.77;44.49;100674.63;4502225;31;34256;-83
2022/11/12 14:13:40;;;;;;;;;;;;;;;19.13;44.64;100676.50;4512610;31;34359;-84
2022/11/12 14:16:41;;;;;;;;;;;;;;;18.85;45.19;100672.91;4505766;31;33624;-85
2022/11/12 14:19:46;;;;;;;;;;;;;;;17.66;48.16;100670.44;4504724;31;35105;-88
2022/11/12 14:22:39;;;;;;;;;;;;;;;17.69;47.72;100669.56;4506234;31;34421;-85
2022/11/12 14:25:25;;;;;;;;;;;;;;;18.05;46.92;100662.88;4506498;31;35159;-87
2022/11/12 14:28:21;;;;;;;;;;;;;;;18.54;45.85;100663.13;4503559;31;33473;-87
2022/11/12 14:31:11;;;;;;;;;;;;;;;18.84;44.92;100663.28;4509660;31;35098;-84
2022/11/12 14:33:56;;;;;;;;;;;;;;;18.78;44.85;100665.88;4508059;31;34035;-87
2022/11/12 14:36:42;;;;;;;;;;;;;;;17.92;46.58;100662.81;4514417;31;34958;-91
2022/11/12 14:39:27;;;;;;;;;;;;;;;17.57;47.65;100669.47;4506636;31;33294;-91
2022/11/12 14:42:13;;;;;;;;;;;;;;;18.10;46.49;100666.41;4505429;31;35172;-90
2022/11/12 14:44:59;;;;;;;;;;;;;;;18.65;45.40;100666.69;4513827;31;34091;-91
2022/11/12 14:47:45;;;;;;;;;;;;;;;19.13;43.99;100663.34;4514616;31;34509;-90
2022/11/12 14:50:30;;;;;;;;;;;;;;;19.36;43.41;100662.50;4515865;31;33235;-90
2022/11/12 14:53:26;;;;;;;;;;;;;;;19.59;43.15;100658.13;4514835;31;33767;-89